Time;durP1;ratioP1;P1;durP2;ratioP2;P2;SDS_P1;SDS_P2;PMS_P1;PMS_P2;Temp;Humidity;BMP_temperature;BMP_pressure;BME280_temperature;BME280_humidity;BME280_pressure;Samples;Min_cycle;Max_cycle;Signal;HPM_P1;HPM_P2
2022/05/17 00:02:05;;;;;;;9.90;6.80;;;18.80;99.90;;;19.39;nan;101041.72;5017979;28;21184;-67
2022/05/17 00:04:33;;;;;;;10.47;7.17;;;18.70;99.90;;;19.47;nan;101052.34;5036306;28;20660;-68
2022/05/17 00:07:02;;;;;;;9.47;6.63;;;18.80;99.90;;;19.45;nan;101046.41;5049481;28;20605;-67
2022/05/17 00:09:30;;;;;;;12.20;7.20;;;18.80;99.90;;;19.45;nan;101047.22;5033386;28;21224;-67
2022/05/17 00:11:59;;;;;;;9.80;7.13;;;18.80;99.90;;;19.42;nan;101046.72;5012807;28;20829;-67
2022/05/17 00:14:27;;;;;;;9.40;6.43;;;18.70;99.90;;;19.43;nan;101045.72;5029533;28;20625;-66
2022/05/17 00:16:55;;;;;;;12.03;5.97;;;18.80;99.90;;;19.38;nan;101038.25;5029532;28;21208;-68
2022/05/17 00:19:22;;;;;;;9.93;6.80;;;18.70;99.90;;;19.30;nan;101043.47;4999518;28;20643;-67
2022/05/17 00:21:50;;;;;;;12.37;6.80;;;18.60;99.90;;;19.21;nan;101049.69;5032256;28;20631;-69
2022/05/17 00:24:20;;;;;;;8.40;6.83;;;18.50;99.90;;;19.16;nan;101049.34;5015379;28;20664;-67
2022/05/17 00:26:48;;;;;;;9.93;5.90;;;18.50;99.90;;;19.15;nan;101053.78;5016037;28;20628;-67
2022/05/17 00:29:15;;;;;;;7.67;6.03;;;18.50;99.90;;;19.13;nan;101050.47;5034084;28;20660;-70
2022/05/17 00:31:42;;;;;;;9.70;6.40;;;18.40;99.90;;;19.06;nan;101049.44;5033278;28;20632;-67
2022/05/17 00:34:09;;;;;;;8.17;6.53;;;18.40;99.90;;;19.03;nan;101051.56;5014304;28;20651;-69
2022/05/17 00:36:37;;;;;;;8.63;6.33;;;18.40;99.90;;;19.05;nan;101046.94;5032715;28;20758;-67
2022/05/17 00:39:04;;;;;;;8.40;6.80;;;18.40;99.90;;;19.03;nan;101046.28;5032613;28;20620;-71
2022/05/17 00:41:31;;;;;;;7.40;6.27;;;18.40;99.90;;;19.03;nan;101055.03;5046362;28;20651;-69
2022/05/17 00:46:59;;;;;;;10.60;7.07;;;18.30;99.90;;;18.94;nan;101047.19;5023488;28;20638;-67
2022/05/17 00:49:40;;;;;;;9.60;7.00;;;18.30;99.90;;;18.98;nan;101043.25;5042127;28;20640;-67
2022/05/17 00:52:16;;;;;;;9.17;6.40;;;18.30;99.90;;;18.98;nan;101049.38;5053910;28;20628;-67
2022/05/17 00:54:44;;;;;;;9.60;6.40;;;18.30;99.90;;;18.92;nan;101051.81;5014634;28;20636;-67
2022/05/17 00:57:20;;;;;;;8.87;6.30;;;18.20;99.90;;;18.86;nan;101049.78;5014865;28;21175;-67
2022/05/17 00:59:49;;;;;;;9.03;6.57;;;18.20;99.90;;;18.87;nan;101056.75;5032522;28;20701;-68
2022/05/17 01:02:16;;;;;;;8.27;6.17;;;18.20;99.90;;;18.85;nan;101051.59;5033261;28;20631;-67
2022/05/17 01:04:43;;;;;;;8.17;6.33;;;18.20;99.90;;;18.82;nan;101049.25;5031949;28;20680;-67
2022/05/17 01:07:37;;;;;;;9.07;6.10;;;18.20;99.90;;;18.71;nan;101053.94;5038458;28;20659;-67
2022/05/17 01:10:05;;;;;;;8.60;5.53;;;18.00;99.90;;;18.61;nan;101051.41;5050254;28;21029;-65
2022/05/17 01:12:35;;;;;;;9.23;6.20;;;17.90;99.90;;;18.55;nan;101054.63;5038263;28;20640;-68
2022/05/17 01:15:06;;;;;;;8.27;6.20;;;17.90;99.90;;;18.49;nan;101049.94;5032267;28;20641;-68
2022/05/17 01:17:38;;;;;;;11.50;5.97;;;17.80;99.90;;;18.50;nan;101048.97;5049047;28;20690;-67
2022/05/17 01:20:12;;;;;;;7.80;6.00;;;17.80;99.90;;;18.48;nan;101043.81;5030689;28;20662;-67
2022/05/17 01:22:39;;;;;;;9.47;6.13;;;17.80;99.90;;;18.49;nan;101048.13;5030393;28;20624;-67
2022/05/17 01:25:07;;;;;;;6.97;5.63;;;17.80;99.90;;;18.53;nan;101048.66;5030129;28;20702;-68
2022/05/17 01:27:46;;;;;;;11.30;6.77;;;17.90;99.90;;;18.54;nan;101048.53;5031471;28;20628;-67
2022/05/17 01:30:23;;;;;;;7.70;5.93;;;17.90;99.90;;;18.51;nan;101046.19;5046744;28;20666;-64
2022/05/17 01:32:51;;;;;;;8.00;5.77;;;17.90;99.90;;;18.43;nan;101046.06;5031887;28;20650;-67
2022/05/17 01:35:19;;;;;;;10.27;6.37;;;17.80;99.90;;;18.38;nan;101044.84;5030588;28;20647;-68
2022/05/17 01:37:54;;;;;;;6.50;5.43;;;17.70;99.90;;;18.36;nan;101046.81;5031031;28;21267;-68
2022/05/17 01:40:24;;;;;;;11.77;6.20;;;17.70;99.90;;;18.27;nan;101048.53;5009378;28;20661;-68
2022/05/17 01:42:50;;;;;;;6.17;5.57;;;17.60;99.90;;;18.24;nan;101037.44;5023869;28;20636;-68
2022/05/17 01:45:18;;;;;;;9.90;5.87;;;17.60;99.90;;;18.24;nan;101053.31;5031082;28;20660;-67
2022/05/17 01:47:45;;;;;;;9.63;6.10;;;17.60;99.90;;;18.12;nan;101049.22;5030967;28;20628;-67
2022/05/17 01:50:13;;;;;;;7.97;6.20;;;17.50;99.90;;;18.13;nan;101046.41;5026277;28;21248;-66
2022/05/17 01:52:40;;;;;;;8.20;6.70;;;17.50;99.90;;;18.09;nan;101050.34;5039082;28;20629;-68
2022/05/17 01:55:08;;;;;;;8.27;6.43;;;17.50;99.90;;;18.03;nan;101050.94;5030395;28;20628;-67
2022/05/17 01:57:35;;;;;;;8.60;6.57;;;17.40;99.90;;;18.15;nan;101056.81;5030867;28;20620;-69
2022/05/17 02:00:08;;;;;;;8.13;6.00;;;17.50;99.90;;;18.13;nan;101053.50;5031124;28;20640;-66
2022/05/17 02:02:36;;;;;;;7.60;6.30;;;17.60;99.90;;;18.18;nan;101057.38;5032672;28;20625;-67
2022/05/17 02:05:06;;;;;;;10.17;6.60;;;17.60;99.90;;;18.23;nan;101057.75;5031365;28;21294;-68
2022/05/17 02:07:33;;;;;;;8.77;6.57;;;17.60;99.90;;;18.26;nan;101054.81;5015311;28;20625;-68
2022/05/17 02:10:00;;;;;;;9.40;6.60;;;17.70;99.90;;;18.25;nan;101055.78;5062628;23;20680;-67
2022/05/17 02:12:27;;;;;;;9.53;7.07;;;17.60;99.90;;;18.26;nan;101046.91;5032355;28;20643;-66
2022/05/17 02:14:54;;;;;;;10.43;7.20;;;17.60;99.90;;;18.25;nan;101050.50;5051080;28;20702;-65
2022/05/17 02:17:22;;;;;;;8.90;6.97;;;17.60;99.90;;;18.24;nan;101056.78;5051794;28;21094;-69
2022/05/17 02:19:49;;;;;;;9.30;6.90;;;17.60;99.90;;;18.23;nan;101063.03;5062022;28;20661;-65
2022/05/17 02:22:16;;;;;;;7.80;6.03;;;17.60;99.90;;;18.20;nan;101051.94;5036811;28;20636;-65
2022/05/17 02:24:43;;;;;;;10.60;7.30;;;17.60;99.90;;;18.17;nan;101052.22;5029471;28;20794;-65
2022/05/17 02:27:10;;;;;;;9.90;7.47;;;17.50;99.90;;;18.16;nan;101054.06;5030179;28;20637;-66
2022/05/17 02:29:37;;;;;;;7.73;6.00;;;17.50;99.90;;;18.17;nan;101062.78;5029896;28;20643;-65
2022/05/17 02:32:04;;;;;;;9.03;6.23;;;17.50;99.90;;;18.11;nan;101058.94;5028684;28;21045;-65
2022/05/17 02:34:32;;;;;;;8.10;5.77;;;17.50;99.90;;;17.97;nan;101059.44;5029207;28;20697;-65
2022/05/17 02:36:59;;;;;;;13.20;6.30;;;17.40;99.90;;;17.87;nan;101061.28;5030164;28;20620;-65
2022/05/17 02:39:26;;;;;;;10.60;6.73;;;17.20;99.90;;;17.79;nan;101058.56;5012196;28;20632;-65
2022/05/17 02:41:53;;;;;;;7.57;6.40;;;17.20;99.90;;;17.68;nan;101058.75;5028271;28;20675;-65
2022/05/17 02:44:20;;;;;;;8.33;6.37;;;17.10;99.90;;;17.67;nan;101067.66;5029471;28;20699;-65
2022/05/17 02:46:47;;;;;;;10.33;6.67;;;17.00;99.90;;;17.68;nan;101066.66;5029145;28;20726;-66
2022/05/17 02:49:14;;;;;;;9.00;6.23;;;17.10;99.90;;;17.70;nan;101075.25;5031239;28;20623;-65
2022/05/17 02:51:42;;;;;;;8.20;6.67;;;17.10;99.90;;;17.70;nan;101064.69;5030232;28;20648;-65
2022/05/17 02:54:10;;;;;;;9.90;6.57;;;17.10;99.90;;;17.75;nan;101067.75;5029289;28;20632;-65
2022/05/17 02:56:38;;;;;;;11.07;6.87;;;17.10;99.90;;;17.77;nan;101071.06;5008381;28;20649;-67
2022/05/17 02:59:05;;;;;;;8.33;6.30;;;17.20;99.90;;;17.78;nan;101068.28;5008932;28;20625;-66
2022/05/17 03:01:32;;;;;;;12.53;6.70;;;17.20;99.90;;;17.76;nan;101069.41;5010415;28;20657;-65
2022/05/17 03:04:01;;;;;;;9.03;5.87;;;17.20;99.90;;;17.76;nan;101077.31;5014843;28;20632;-65
2022/05/17 03:06:28;;;;;;;8.73;6.97;;;17.20;99.90;;;17.80;nan;101079.53;5030069;28;20616;-65
2022/05/17 03:08:55;;;;;;;9.07;6.77;;;17.20;99.90;;;17.83;nan;101081.88;5029460;28;20607;-66
2022/05/17 03:11:22;;;;;;;14.63;6.60;;;17.20;99.90;;;17.82;nan;101076.75;5029117;28;20673;-65
2022/05/17 03:13:49;;;;;;;11.13;7.40;;;17.20;99.90;;;17.88;nan;101084.09;5044737;28;20612;-66
2022/05/17 03:16:16;;;;;;;7.77;6.13;;;17.30;99.90;;;17.87;nan;101077.13;5029507;28;20643;-65
2022/05/17 03:18:43;;;;;;;9.10;6.77;;;17.30;99.90;;;17.84;nan;101075.59;5029869;28;20693;-66
2022/05/17 03:21:10;;;;;;;11.00;6.70;;;17.20;99.90;;;17.86;nan;101087.84;5030248;28;20657;-66
2022/05/17 03:23:37;;;;;;;7.70;6.43;;;17.20;99.90;;;17.87;nan;101085.06;5030378;28;21185;-66
2022/05/17 03:26:05;;;;;;;8.33;6.33;;;17.30;99.90;;;17.80;nan;101086.63;5043419;28;20669;-69
2022/05/17 03:28:32;;;;;;;10.07;6.80;;;17.20;99.90;;;17.79;nan;101084.94;5029129;28;20640;-66
2022/05/17 03:30:59;;;;;;;9.27;6.47;;;17.10;99.90;;;17.74;nan;101093.31;5033790;28;20711;-67
2022/05/17 03:33:26;;;;;;;10.17;6.50;;;17.10;99.90;;;17.76;nan;101098.44;5035127;28;20636;-65
2022/05/17 03:35:53;;;;;;;11.47;6.07;;;17.10;99.90;;;17.73;nan;101090.81;5034246;28;21068;-66
2022/05/17 03:38:20;;;;;;;7.50;6.17;;;17.10;99.90;;;17.77;nan;101102.75;5016274;28;20632;-66
2022/05/17 03:40:52;;;;;;;7.70;6.27;;;17.20;99.90;;;17.73;nan;101104.00;5031711;28;20672;-65
2022/05/17 03:43:20;;;;;;;8.33;6.87;;;17.10;99.90;;;17.66;nan;101100.28;5016694;28;20625;-68
2022/05/17 03:45:47;;;;;;;7.77;6.10;;;17.10;99.90;;;17.56;nan;101100.31;5016363;28;21299;-64
2022/05/17 03:48:14;;;;;;;10.67;7.43;;;17.00;99.90;;;17.60;nan;101104.34;5028875;28;20770;-65
2022/05/17 03:50:42;;;;;;;9.20;6.73;;;17.00;99.90;;;17.64;nan;101107.50;5032275;28;20668;-66
2022/05/17 03:53:09;;;;;;;7.47;6.27;;;17.10;99.90;;;17.65;nan;101112.63;5033629;28;20978;-65
2022/05/17 03:55:37;;;;;;;9.10;6.70;;;17.00;99.90;;;17.67;nan;101115.16;5014295;28;20636;-65
2022/05/17 03:58:04;;;;;;;7.60;6.17;;;17.10;99.90;;;17.70;nan;101115.69;5024695;28;20632;-66
2022/05/17 04:00:31;;;;;;;9.23;6.77;;;17.10;99.90;;;17.73;nan;101115.41;5033322;28;20648;-65
2022/05/17 04:02:58;;;;;;;9.90;6.60;;;17.10;99.90;;;17.71;nan;101119.16;5033330;28;20644;-67
2022/05/17 04:05:26;;;;;;;8.40;6.93;;;17.10;99.90;;;17.76;nan;101124.81;5031598;28;20672;-66
2022/05/17 04:07:52;;;;;;;7.87;6.50;;;17.20;99.90;;;17.90;nan;101126.16;5015203;28;20624;-66
2022/05/17 04:10:20;;;;;;;13.17;6.93;;;17.30;99.90;;;18.01;nan;101126.84;5014985;28;20665;-67
2022/05/17 04:12:46;;;;;;;10.33;7.10;;;17.50;99.90;;;18.09;nan;101112.88;5033483;28;20620;-66
2022/05/17 04:15:18;;;;;;;12.60;7.90;;;17.60;99.90;;;18.22;nan;101113.38;5015280;28;20635;-63
2022/05/17 04:17:47;;;;;;;12.57;7.13;;;17.70;99.90;;;18.38;nan;101113.53;5032476;28;20632;-68
2022/05/17 04:20:16;;;;;;;10.30;6.57;;;17.80;99.90;;;18.52;nan;101116.56;5033496;28;20648;-67
2022/05/17 04:22:48;;;;;;;9.13;6.77;;;18.10;99.90;;;18.67;nan;101110.75;5034208;28;21204;-64
2022/05/17 04:25:22;;;;;;;12.30;6.63;;;18.10;99.90;;;18.78;nan;101108.72;5037552;28;20670;-67
2022/05/17 04:27:50;;;;;;;12.53;6.70;;;18.30;99.90;;;18.93;nan;101109.00;5034068;28;20612;-66
2022/05/17 04:30:18;;;;;;;9.27;7.00;;;18.40;99.90;;;19.05;nan;101113.06;5033140;28;20632;-66
2022/05/17 04:32:46;;;;;;;14.20;7.43;;;18.60;99.90;;;19.25;nan;101115.38;5032733;28;20702;-65
2022/05/17 04:35:15;;;;;;;9.27;6.83;;;18.80;99.90;;;19.47;nan;101119.34;5031828;28;20649;-66
2022/05/17 04:37:48;;;;;;;10.47;6.70;;;19.00;99.90;;;19.69;nan;101118.84;5033110;28;20616;-66
2022/05/17 04:40:15;;;;;;;9.37;6.30;;;19.30;99.90;;;19.90;nan;101116.63;5014109;28;20664;-67
2022/05/17 04:42:47;;;;;;;8.97;7.07;;;19.50;99.90;;;20.06;nan;101116.69;5032905;28;20625;-68
2022/05/17 04:45:16;;;;;;;14.00;8.13;;;19.60;99.90;;;20.26;nan;101117.28;5043748;28;20668;-66
2022/05/17 04:47:45;;;;;;;11.73;7.63;;;19.90;99.90;;;20.47;nan;101120.34;5032974;28;20633;-65
2022/05/17 04:50:14;;;;;;;10.63;7.70;;;20.10;99.90;;;20.75;nan;101134.16;5015258;28;20632;-66
2022/05/17 04:52:41;;;;;;;8.50;7.40;;;20.30;99.90;;;21.04;nan;101137.19;5032539;28;20612;-68
2022/05/17 04:55:11;;;;;;;12.40;8.10;;;20.60;99.90;;;21.32;nan;101135.00;5031974;28;20637;-66
2022/05/17 04:57:38;;;;;;;14.20;8.90;;;20.90;99.90;;;21.55;nan;101134.16;5032489;28;20631;-66
2022/05/17 05:00:10;;;;;;;16.43;7.93;;;21.20;99.90;;;21.71;nan;101137.78;5031559;28;20651;-67
2022/05/17 05:02:37;;;;;;;13.00;7.57;;;21.30;99.90;;;21.89;nan;101141.09;5036804;28;20670;-66
2022/05/17 05:05:06;;;;;;;11.40;8.70;;;21.50;99.90;;;22.13;nan;101139.16;5037469;28;21479;-66
2022/05/17 05:07:33;;;;;;;10.87;8.10;;;21.70;99.90;;;22.37;nan;101140.88;5033494;28;20620;-68
2022/05/17 05:10:00;;;;;;;15.83;9.30;;;22.00;99.90;;;22.60;nan;101139.09;5032529;28;20656;-66
2022/05/17 05:12:30;;;;;;;14.03;9.80;;;22.20;99.90;;;22.85;nan;101145.91;5029521;28;20636;-66
2022/05/17 05:14:59;;;;;;;12.43;8.37;;;22.50;99.90;;;23.06;nan;101143.44;5031176;28;20639;-66
2022/05/17 05:17:35;;;;;;;14.17;8.60;;;22.70;99.90;;;23.35;nan;101142.72;5030946;28;20651;-67
2022/05/17 05:20:05;;;;;;;11.80;7.57;;;23.00;99.90;;;23.65;nan;101144.44;5031633;28;20704;-70
2022/05/17 05:22:33;;;;;;;11.77;7.40;;;23.30;99.90;;;23.86;nan;101159.69;5037883;28;20640;-68
2022/05/17 05:25:01;;;;;;;9.50;7.83;;;23.50;99.90;;;23.86;nan;101157.84;5032153;28;21087;-66
2022/05/17 05:27:33;;;;;;;12.00;7.37;;;23.50;99.90;;;23.89;nan;101159.31;5019246;28;21195;-67
2022/05/17 05:30:03;;;;;;;10.40;7.97;;;23.50;99.90;;;23.97;nan;101158.41;5011884;28;21209;-65
2022/05/17 05:32:30;;;;;;;9.87;7.80;;;23.50;99.90;;;24.09;nan;101159.59;5012499;28;20983;-66
2022/05/17 05:34:57;;;;;;;11.17;8.20;;;23.60;99.90;;;24.30;nan;101157.03;5019129;28;20644;-63
2022/05/17 05:37:24;;;;;;;12.00;8.33;;;23.80;99.90;;;24.56;nan;101166.16;5031744;28;20632;-68
2022/05/17 05:39:51;;;;;;;11.27;8.60;;;24.20;99.90;;;24.86;nan;101166.91;5034601;28;21170;-64
2022/05/17 05:42:18;;;;;;;9.03;8.03;;;24.50;99.90;;;25.14;nan;101173.16;5037785;28;21206;-67
2022/05/17 05:44:45;;;;;;;9.20;7.50;;;24.80;99.90;;;25.46;nan;101173.66;5031248;28;20628;-67
2022/05/17 05:47:12;;;;;;;10.30;7.97;;;25.10;99.80;;;25.61;nan;101177.06;5030029;28;20639;-66
2022/05/17 05:49:39;;;;;;;11.07;8.70;;;25.20;98.80;;;25.80;nan;101181.72;5030756;28;20694;-66
2022/05/17 05:52:07;;;;;;;12.70;9.10;;;25.40;98.10;;;26.10;nan;101177.81;5030093;28;20652;-66
2022/05/17 05:54:34;;;;;;;14.50;8.83;;;25.70;97.40;;;26.35;nan;101180.78;5030413;28;20616;-66
2022/05/17 05:57:01;;;;;;;10.50;7.87;;;26.00;96.60;;;26.62;nan;101182.56;5032652;28;20629;-63
2022/05/17 05:59:29;;;;;;;11.03;8.30;;;26.30;96.00;;;27.05;nan;101183.91;5031926;28;20640;-68
2022/05/17 06:01:57;;;;;;;17.17;9.70;;;26.80;95.00;;;27.47;nan;101188.09;5032469;28;21252;-67
2022/05/17 06:04:27;;;;;;;15.73;8.60;;;27.20;93.70;;;27.80;nan;101180.00;5030704;28;21213;-66
2022/05/17 06:06:56;;;;;;;11.47;8.27;;;27.50;92.90;;;27.91;nan;101184.72;5032134;28;20675;-69
2022/05/17 06:09:27;;;;;;;12.20;7.30;;;27.50;91.90;;;28.11;nan;101188.22;5013930;28;20631;-65
2022/05/17 06:11:54;;;;;;;12.50;8.30;;;27.80;91.30;;;28.38;nan;101198.66;5030885;28;20743;-64
2022/05/17 06:14:22;;;;;;;10.30;7.80;;;28.10;90.60;;;28.77;nan;101196.84;5031909;28;20683;-66
2022/05/17 06:16:51;;;;;;;11.97;9.20;;;28.40;90.00;;;29.39;nan;101196.81;5012376;28;21009;-67
2022/05/17 06:19:19;;;;;;;11.73;8.50;;;29.10;87.60;;;29.97;nan;101202.72;5030526;28;20628;-67
2022/05/17 06:21:46;;;;;;;10.87;8.57;;;29.70;84.30;;;30.62;nan;101201.94;5029830;28;21260;-66
2022/05/17 06:24:13;;;;;;;11.67;8.13;;;30.40;81.70;;;31.10;nan;101195.69;5012746;28;20656;-68
2022/05/17 06:26:40;;;;;;;13.10;9.17;;;30.80;78.90;;;31.56;nan;101205.78;5030731;28;20667;-68
2022/05/17 06:29:08;;;;;;;12.57;9.70;;;31.20;76.50;;;31.94;nan;101204.28;5030139;28;20636;-65
2022/05/17 06:31:35;;;;;;;12.77;9.73;;;31.60;74.40;;;32.33;nan;101210.75;5030850;28;20636;-65
2022/05/17 06:34:02;;;;;;;15.13;10.63;;;32.00;72.90;;;32.56;nan;101207.22;5029937;28;20640;-67
2022/05/17 06:36:29;;;;;;;18.30;10.87;;;32.10;71.40;;;32.92;nan;101205.97;5030784;28;21022;-67
2022/05/17 06:39:16;;;;;;;15.17;11.50;;;32.50;69.70;;;33.08;nan;101207.91;5030609;28;20641;-66
2022/05/17 06:41:43;;;;;;;11.47;9.70;;;32.70;68.30;;;33.69;nan;101212.44;5031272;28;20656;-66
2022/05/17 06:44:10;;;;;;;14.93;10.50;;;33.20;66.90;;;34.29;nan;101208.69;5004387;28;20645;-66
2022/05/17 06:46:37;;;;;;;14.90;9.87;;;33.80;65.60;;;35.36;nan;101213.34;5019716;28;20699;-69
2022/05/17 06:49:05;;;;;;;16.70;10.80;;;34.80;63.00;;;36.30;nan;101214.22;5012064;28;20644;-64
2022/05/17 06:51:35;;;;;;;15.83;10.90;;;35.90;60.70;;;36.76;nan;101207.84;5029840;28;20760;-66
2022/05/17 06:54:02;;;;;;;13.00;11.10;;;36.30;58.60;;;37.25;nan;101202.75;5029707;28;20635;-67
2022/05/17 06:56:29;;;;;;;15.10;11.90;;;36.80;56.90;;;37.71;nan;101209.81;5028780;28;20640;-65
2022/05/17 06:58:56;;;;;;;15.83;11.10;;;37.30;55.00;;;38.19;nan;101211.03;5030186;28;20620;-66
2022/05/17 07:01:23;;;;;;;11.83;10.57;;;37.80;53.90;;;38.73;nan;101209.19;5029489;28;20664;-66
2022/05/17 07:03:51;;;;;;;12.73;11.03;;;38.40;52.70;;;39.24;nan;101198.72;5028806;28;20641;-66
2022/05/17 07:06:18;;;;;;;14.30;11.57;;;38.90;51.60;;;39.34;nan;101206.78;5029634;28;20671;-66
2022/05/17 07:08:45;;;;;;;13.53;11.03;;;38.90;50.70;;;39.34;nan;101206.78;5026033;28;21376;-66
2022/05/17 07:13:58;;;;;;;12.47;11.17;;;38.90;50.20;;;39.21;nan;101207.47;5027895;28;20628;-67
2022/05/17 07:16:25;;;;;;;11.67;9.97;;;38.70;49.80;;;38.66;nan;101213.28;5021566;28;20628;-66
2022/05/17 07:18:53;;;;;;;11.80;10.57;;;38.50;49.50;;;39.39;nan;101200.47;5029351;28;21412;-66
2022/05/17 07:21:33;;;;;;;13.53;11.27;;;38.80;49.60;;;39.14;nan;101201.53;5029701;28;20731;-68
2022/05/17 07:24:00;;;;;;;12.77;11.10;;;39.10;48.70;;;39.03;nan;101210.03;5030131;28;20632;-68
2022/05/17 07:26:27;;;;;;;13.10;9.93;;;38.60;49.10;;;39.31;nan;101207.38;5029769;28;20664;-66
2022/05/17 07:28:54;;;;;;;14.23;10.20;;;38.80;48.80;;;37.86;nan;101198.91;5028085;28;20643;-66
2022/05/17 07:31:21;;;;;;;12.90;11.27;;;37.40;50.10;;;38.06;nan;101204.28;5029407;28;20656;-66
2022/05/17 07:33:48;;;;;;;14.67;11.10;;;37.50;50.10;;;38.02;nan;101200.47;5012193;28;20698;-66
2022/05/17 07:36:15;;;;;;;15.37;10.20;;;37.40;50.40;;;38.21;nan;101213.50;5027733;28;20636;-66
2022/05/17 07:38:42;;;;;;;14.30;10.50;;;37.70;50.20;;;38.26;nan;101217.03;5030056;28;20628;-67
2022/05/17 07:41:09;;;;;;;13.47;9.13;;;37.60;50.30;;;38.08;nan;101203.19;5027342;28;20676;-67
2022/05/17 07:43:36;;;;;;;11.23;9.27;;;38.00;49.40;;;38.47;nan;101215.03;5030048;28;20628;-66
2022/05/17 07:46:03;;;;;;;16.83;10.13;;;37.80;49.70;;;39.32;nan;101208.19;5028940;28;20663;-67
2022/05/17 07:48:30;;;;;;;11.70;9.27;;;38.70;49.00;;;39.91;nan;101207.88;5029419;28;20613;-67
2022/05/17 07:50:57;;;;;;;14.80;10.30;;;39.50;48.30;;;40.48;nan;101215.13;5028990;28;20660;-68
2022/05/17 07:53:24;;;;;;;10.50;9.50;;;40.10;47.90;;;40.87;nan;101216.47;5028960;28;20629;-67
2022/05/17 07:55:51;;;;;;;12.53;9.60;;;40.60;46.90;;;41.21;nan;101220.88;5028109;28;21107;-67
2022/05/17 07:58:20;;;;;;;10.73;8.93;;;40.90;46.40;;;41.51;nan;101218.41;5030469;28;20628;-66
2022/05/17 08:00:47;;;;;;;9.70;8.83;;;41.20;46.10;;;41.92;nan;101218.47;5030012;28;21253;-66
2022/05/17 08:03:16;;;;;;;9.23;8.00;;;41.60;45.50;;;42.15;nan;101213.91;5028892;28;20747;-67
2022/05/17 08:05:44;;;;;;;11.20;8.00;;;41.90;45.10;;;42.47;nan;101225.59;5030190;28;20661;-64
2022/05/17 08:08:11;;;;;;;8.10;7.40;;;42.10;44.80;;;42.94;nan;101213.25;5031899;28;20619;-67
2022/05/17 08:10:39;;;;;;;8.73;7.97;;;42.70;44.20;;;43.11;nan;101215.28;5065038;23;20671;-65
2022/05/17 08:13:07;;;;;;;11.03;8.70;;;42.80;43.30;;;43.23;nan;101215.56;5046900;28;20658;-67
2022/05/17 08:15:34;;;;;;;9.60;8.60;;;42.90;43.00;;;43.07;nan;101212.38;5050280;28;21288;-67
2022/05/17 08:18:02;;;;;;;9.57;8.67;;;42.70;43.20;;;43.36;nan;101220.19;5054326;28;20619;-65
2022/05/17 08:20:30;;;;;;;9.90;8.10;;;43.00;43.40;;;43.86;nan;101213.31;5052063;28;20628;-66
2022/05/17 08:23:00;;;;;;;8.80;7.90;;;43.60;42.70;;;43.69;nan;101209.69;5053250;28;20607;-65
2022/05/17 08:28:13;;;;;;;10.00;9.10;;;42.90;42.70;;;43.67;nan;101203.69;5046077;28;20638;-69
2022/05/17 08:30:41;;;;;;;9.13;8.33;;;43.30;42.50;;;43.91;nan;101210.44;5050735;28;20698;-69
2022/05/17 08:33:19;;;;;;;10.07;8.23;;;43.50;42.20;;;43.54;nan;101205.41;5053413;28;20618;-67
2022/05/17 08:36:01;;;;;;;9.70;8.80;;;43.30;41.90;;;41.96;nan;101202.22;5053150;28;20635;-70
2022/05/17 08:38:36;;;;;;;11.17;8.13;;;41.60;42.40;;;40.72;nan;101202.22;5053174;28;20670;-67
2022/05/17 08:41:48;;;;;;;19.23;8.77;;;40.30;43.60;;;40.61;nan;101200.72;5053723;28;20882;-66
2022/05/17 08:44:23;;;;;;;9.10;8.17;;;40.00;44.10;;;41.04;nan;101199.50;5052268;28;20610;-65
2022/05/17 08:47:12;;;;;;;8.43;7.63;;;40.50;43.40;;;41.04;nan;101198.72;5050784;28;20662;-66
2022/05/17 08:50:06;;;;;;;7.57;6.87;;;40.70;43.30;;;41.50;nan;101194.91;5046415;28;20600;-66
2022/05/17 08:52:37;;;;;;;7.77;6.40;;;41.00;43.40;;;42.41;nan;101199.34;5050661;28;20659;-67
2022/05/17 08:55:36;;;;;;;6.50;6.00;;;41.90;42.60;;;42.92;nan;101200.94;5050650;28;20636;-66
2022/05/17 08:58:23;;;;;;;6.67;6.20;;;42.70;41.30;;;43.50;nan;101200.84;5050702;28;20630;-65
2022/05/17 09:01:02;;;;;;;6.33;5.83;;;43.00;41.10;;;43.73;nan;101197.75;5048675;28;20643;-66
2022/05/17 09:04:09;;;;;;;7.87;7.27;;;43.60;40.10;;;44.07;nan;101196.25;5038756;28;20631;-65
2022/05/17 09:06:54;;;;;;;8.20;7.40;;;43.50;40.30;;;44.56;nan;101198.59;5007862;28;20674;-65
2022/05/17 09:09:33;;;;;;;6.70;5.90;;;44.10;39.80;;;45.46;nan;101194.75;5042388;28;20644;-65
2022/05/17 09:12:25;;;;;;;6.70;6.20;;;45.00;39.20;;;46.54;nan;101196.75;5049908;28;20665;-66
2022/05/17 09:14:56;;;;;;;5.93;5.40;;;46.20;38.10;;;46.99;nan;101199.63;5045150;28;20685;-66
2022/05/17 09:17:25;;;;;;;6.80;6.10;;;46.70;37.60;;;47.58;nan;101206.47;5049458;28;20635;-66
2022/05/17 09:19:53;;;;;;;6.70;6.03;;;47.30;36.90;;;48.12;nan;101201.53;5052594;28;20631;-65
2022/05/17 09:22:22;;;;;;;6.10;5.60;;;47.90;36.50;;;48.24;nan;101204.28;5048419;28;20660;-63
2022/05/17 09:24:55;;;;;;;6.23;5.67;;;48.10;36.00;;;47.88;nan;101196.81;5049696;28;20628;-65
2022/05/17 09:27:36;;;;;;;5.43;4.97;;;47.70;36.00;;;48.04;nan;101194.16;5044079;28;20668;-65
2022/05/17 09:30:08;;;;;;;7.97;6.03;;;47.70;36.30;;;48.05;nan;101191.03;5042743;28;20640;-65
2022/05/17 09:32:44;;;;;;;4.80;4.50;;;47.70;35.90;;;48.05;nan;101188.25;5047692;28;20651;-64
2022/05/17 09:35:18;;;;;;;5.10;4.80;;;47.80;35.70;;;48.62;nan;101190.00;5050622;28;20650;-65
2022/05/17 09:37:58;;;;;;;4.80;4.40;;;48.40;35.40;;;48.98;nan;101187.88;5049987;28;20987;-65
2022/05/17 09:40:32;;;;;;;4.67;4.47;;;48.70;35.00;;;48.18;nan;101183.53;5051235;28;20639;-65
2022/05/17 09:43:02;;;;;;;4.40;4.07;;;48.20;34.60;;;48.11;nan;101181.34;5050252;28;20713;-65
2022/05/17 09:45:52;;;;;;;4.37;4.17;;;47.80;34.70;;;48.07;nan;101183.19;5049798;28;21176;-65
2022/05/17 09:48:33;;;;;;;5.80;5.30;;;47.70;34.70;;;47.97;nan;101177.31;5050905;28;20624;-65
2022/05/17 09:53:56;;;;;;;5.93;5.43;;;46.40;34.50;;;46.24;nan;101165.66;4995474;28;20633;-65
2022/05/17 09:56:27;;;;;;;6.80;6.30;;;45.90;35.70;;;46.02;nan;101157.72;5051792;28;20624;-64
2022/05/17 09:58:56;;;;;;;6.60;6.00;;;45.80;35.80;;;46.26;nan;101157.84;5049764;28;20640;-65
2022/05/17 10:01:37;;;;;;;7.13;6.53;;;46.00;35.80;;;45.54;nan;101154.50;5050991;28;20659;-64
2022/05/17 10:04:11;;;;;;;5.57;5.07;;;45.50;35.90;;;45.78;nan;101157.50;5051326;28;20616;-65
2022/05/17 10:06:43;;;;;;;5.00;4.70;;;45.50;35.70;;;45.83;nan;101149.03;5047565;28;20686;-64
2022/05/17 10:09:13;;;;;;;4.43;4.23;;;45.70;35.50;;;45.60;nan;101153.25;5049777;28;21167;-65
2022/05/17 10:11:53;;;;;;;5.70;4.37;;;45.50;35.70;;;45.36;nan;101146.31;5048996;28;21314;-65
2022/05/17 10:14:31;;;;;;;4.20;3.83;;;45.20;35.50;;;44.77;nan;101144.50;5050834;28;20619;-66
2022/05/17 10:17:08;;;;;;;4.33;3.93;;;44.60;35.70;;;43.43;nan;101138.09;5043766;28;21204;-66
2022/05/17 10:19:58;;;;;;;5.57;4.20;;;43.20;36.40;;;42.27;nan;101134.69;5049336;28;20999;-65
2022/05/17 10:22:34;;;;;;;4.97;4.47;;;41.80;37.30;;;41.21;nan;101128.56;5048469;28;20684;-63
2022/05/17 10:25:26;;;;;;;4.30;4.00;;;40.60;38.60;;;39.95;nan;101116.03;5049882;28;20627;-65
2022/05/17 10:28:00;;;;;;;3.27;3.07;;;39.40;39.50;;;38.51;nan;101128.84;5030383;28;20668;-65
2022/05/17 10:30:37;;;;;;;4.23;3.93;;;37.80;39.70;;;37.48;nan;101112.41;5029058;28;21212;-64
2022/05/17 10:33:11;;;;;;;9.40;7.40;;;36.70;39.80;;;36.33;nan;101110.44;5030401;28;20612;-65
2022/05/17 10:36:02;;;;;;;5.63;5.07;;;35.60;40.90;;;35.19;nan;101106.88;5029206;28;21022;-64
2022/05/17 10:38:39;;;;;;;4.83;4.43;;;34.40;42.20;;;34.41;nan;101097.50;5029840;28;20612;-64
2022/05/17 10:41:11;;;;;;;5.37;4.90;;;33.60;44.10;;;34.21;nan;101097.28;5045334;28;20836;-64
2022/05/17 10:43:44;;;;;;;5.20;4.70;;;33.30;44.50;;;33.88;nan;101097.41;5049501;28;20616;-63
2022/05/17 10:46:20;;;;;;;6.93;3.80;;;33.00;44.50;;;33.79;nan;101104.31;5043337;28;20632;-65
2022/05/17 10:49:06;;;;;;;3.50;3.20;;;32.90;44.50;;;33.31;nan;101100.38;5049549;28;20626;-64